sensor_id;sensor_type;location;lat;lon;timestamp;temperature;humidity
57030;DHT22;42920;45.306;20.448;2023-05-23T00:01:07;461.20;2380.80
57030;DHT22;42920;45.306;20.448;2023-05-23T00:03:33;461.30;2380.80
57030;DHT22;42920;45.306;20.448;2023-05-23T00:06:00;461.40;2380.80
57030;DHT22;42920;45.306;20.448;2023-05-23T00:08:26;461.40;2380.80
57030;DHT22;42920;45.306;20.448;2023-05-23T00:10:52;461.30;2380.80
57030;DHT22;42920;45.306;20.448;2023-05-23T00:13:17;461.20;2380.80
57030;DHT22;42920;45.306;20.448;2023-05-23T00:15:43;461.10;2380.80
57030;DHT22;42920;45.306;20.448;2023-05-23T00:18:10;461.10;2380.80
57030;DHT22;42920;45.306;20.448;2023-05-23T00:20:36;461.10;2380.80
57030;DHT22;42920;45.306;20.448;2023-05-23T00:23:05;461.10;2380.80
57030;DHT22;42920;45.306;20.448;2023-05-23T00:25:32;461.00;2380.80
57030;DHT22;42920;45.306;20.448;2023-05-23T00:28:01;460.90;2380.80
57030;DHT22;42920;45.306;20.448;2023-05-23T00:30:29;460.80;2380.80
57030;DHT22;42920;45.306;20.448;2023-05-23T00:32:55;460.90;2380.80
57030;DHT22;42920;45.306;20.448;2023-05-23T00:35:21;461.00;2380.80
57030;DHT22;42920;45.306;20.448;2023-05-23T00:37:48;460.90;2380.80
57030;DHT22;42920;45.306;20.448;2023-05-23T00:40:17;460.90;2380.80
57030;DHT22;42920;45.306;20.448;2023-05-23T00:42:43;460.80;2380.80
57030;DHT22;42920;45.306;20.448;2023-05-23T00:45:09;436.10;2355.20
57030;DHT22;42920;45.306;20.448;2023-05-23T00:47:42;460.80;2380.80
57030;DHT22;42920;45.306;20.448;2023-05-23T00:50:10;460.80;2380.80
57030;DHT22;42920;45.306;20.448;2023-05-23T00:52:37;460.80;2380.80
57030;DHT22;42920;45.306;20.448;2023-05-23T00:55:04;436.10;2355.20
57030;DHT22;42920;45.306;20.448;2023-05-23T00:57:30;436.10;2355.20
57030;DHT22;42920;45.306;20.448;2023-05-23T00:59:59;460.80;2380.80
57030;DHT22;42920;45.306;20.448;2023-05-23T01:02:25;460.80;2380.80
57030;DHT22;42920;45.306;20.448;2023-05-23T01:04:53;436.10;2355.20
57030;DHT22;42920;45.306;20.448;2023-05-23T01:07:20;436.00;2355.20
57030;DHT22;42920;45.306;20.448;2023-05-23T01:09:46;435.90;2355.20
57030;DHT22;42920;45.306;20.448;2023-05-23T01:12:24;436.00;2355.20
57030;DHT22;42920;45.306;20.448;2023-05-23T01:15:04;435.90;2355.20
57030;DHT22;42920;45.306;20.448;2023-05-23T01:20:37;435.70;2355.20
57030;DHT22;42920;45.306;20.448;2023-05-23T01:23:26;435.80;2355.20
57030;DHT22;42920;45.306;20.448;2023-05-23T01:29:03;435.80;2355.20
57030;DHT22;42920;45.306;20.448;2023-05-23T01:31:36;435.80;2355.20
57030;DHT22;42920;45.306;20.448;2023-05-23T01:34:03;435.80;2355.20
57030;DHT22;42920;45.306;20.448;2023-05-23T01:36:32;435.90;2355.20
57030;DHT22;42920;45.306;20.448;2023-05-23T01:38:59;435.80;2355.20
57030;DHT22;42920;45.306;20.448;2023-05-23T01:41:25;435.80;2355.20
57030;DHT22;42920;45.306;20.448;2023-05-23T01:43:53;435.60;2355.20
57030;DHT22;42920;45.306;20.448;2023-05-23T01:46:20;435.80;2355.20
57030;DHT22;42920;45.306;20.448;2023-05-23T01:48:47;435.80;2355.20
57030;DHT22;42920;45.306;20.448;2023-05-23T01:51:13;435.90;2355.20
57030;DHT22;42920;45.306;20.448;2023-05-23T01:53:40;435.60;2355.20
57030;DHT22;42920;45.306;20.448;2023-05-23T01:56:07;435.60;2355.20
57030;DHT22;42920;45.306;20.448;2023-05-23T01:58:33;435.50;2355.20
57030;DHT22;42920;45.306;20.448;2023-05-23T02:00:58;435.30;2355.20
57030;DHT22;42920;45.306;20.448;2023-05-23T02:03:24;435.20;2355.20
57030;DHT22;42920;45.306;20.448;2023-05-23T02:05:50;410.50;2355.20
57030;DHT22;42920;45.306;20.448;2023-05-23T02:08:16;410.50;2355.20
57030;DHT22;42920;45.306;20.448;2023-05-23T02:10:42;410.50;2355.20
57030;DHT22;42920;45.306;20.448;2023-05-23T02:13:07;410.40;2355.20
57030;DHT22;42920;45.306;20.448;2023-05-23T02:15:33;410.50;2355.20
57030;DHT22;42920;45.306;20.448;2023-05-23T02:17:59;410.40;2355.20
57030;DHT22;42920;45.306;20.448;2023-05-23T02:20:26;410.40;2355.20
57030;DHT22;42920;45.306;20.448;2023-05-23T02:22:52;410.50;2355.20
57030;DHT22;42920;45.306;20.448;2023-05-23T02:25:17;410.50;2355.20
57030;DHT22;42920;45.306;20.448;2023-05-23T02:27:43;410.40;2355.20
57030;DHT22;42920;45.306;20.448;2023-05-23T02:30:09;410.30;2355.20
57030;DHT22;42920;45.306;20.448;2023-05-23T02:32:35;410.30;2355.20
57030;DHT22;42920;45.306;20.448;2023-05-23T02:35:03;410.30;2355.20
57030;DHT22;42920;45.306;20.448;2023-05-23T02:37:28;410.30;2355.20
57030;DHT22;42920;45.306;20.448;2023-05-23T02:39:55;410.50;2355.20
57030;DHT22;42920;45.306;20.448;2023-05-23T02:42:21;410.50;2355.20
57030;DHT22;42920;45.306;20.448;2023-05-23T02:44:47;410.50;2355.20
57030;DHT22;42920;45.306;20.448;2023-05-23T02:47:12;410.50;2355.20
57030;DHT22;42920;45.306;20.448;2023-05-23T02:49:38;410.50;2355.20
57030;DHT22;42920;45.306;20.448;2023-05-23T02:52:04;410.50;2355.20
57030;DHT22;42920;45.306;20.448;2023-05-23T02:54:30;410.40;2355.20
57030;DHT22;42920;45.306;20.448;2023-05-23T02:56:55;410.30;2355.20
57030;DHT22;42920;45.306;20.448;2023-05-23T02:59:21;410.20;2355.20
57030;DHT22;42920;45.306;20.448;2023-05-23T03:01:47;410.40;2355.20
57030;DHT22;42920;45.306;20.448;2023-05-23T03:04:13;410.50;2355.20
57030;DHT22;42920;45.306;20.448;2023-05-23T03:06:39;410.40;2355.20
57030;DHT22;42920;45.306;20.448;2023-05-23T03:09:07;410.20;2355.20
57030;DHT22;42920;45.306;20.448;2023-05-23T03:11:33;410.30;2355.20
57030;DHT22;42920;45.306;20.448;2023-05-23T03:13:58;410.40;2355.20
57030;DHT22;42920;45.306;20.448;2023-05-23T03:16:24;410.30;2355.20
57030;DHT22;42920;45.306;20.448;2023-05-23T03:18:50;410.50;2355.20
57030;DHT22;42920;45.306;20.448;2023-05-23T03:21:16;410.40;2355.20
57030;DHT22;42920;45.306;20.448;2023-05-23T03:23:41;410.40;2355.20
57030;DHT22;42920;45.306;20.448;2023-05-23T03:26:07;410.50;2355.20
57030;DHT22;42920;45.306;20.448;2023-05-23T03:28:33;410.40;2355.20
57030;DHT22;42920;45.306;20.448;2023-05-23T03:30:58;410.30;2355.20
57030;DHT22;42920;45.306;20.448;2023-05-23T03:33:24;410.30;2355.20
57030;DHT22;42920;45.306;20.448;2023-05-23T03:35:50;410.40;2355.20
57030;DHT22;42920;45.306;20.448;2023-05-23T03:38:17;435.20;2355.20
57030;DHT22;42920;45.306;20.448;2023-05-23T03:40:43;435.30;2355.20
57030;DHT22;42920;45.306;20.448;2023-05-23T03:43:08;410.50;2355.20
57030;DHT22;42920;45.306;20.448;2023-05-23T03:45:34;435.20;2355.20
57030;DHT22;42920;45.306;20.448;2023-05-23T03:48:00;435.20;2355.20
57030;DHT22;42920;45.306;20.448;2023-05-23T03:50:26;410.50;2355.20
57030;DHT22;42920;45.306;20.448;2023-05-23T03:52:52;435.20;2355.20
57030;DHT22;42920;45.306;20.448;2023-05-23T03:55:20;410.50;2355.20
57030;DHT22;42920;45.306;20.448;2023-05-23T03:57:49;410.50;2355.20
57030;DHT22;42920;45.306;20.448;2023-05-23T04:00:16;410.50;2355.20
57030;DHT22;42920;45.306;20.448;2023-05-23T04:02:41;435.20;2355.20
57030;DHT22;42920;45.306;20.448;2023-05-23T04:05:08;435.30;2355.20
57030;DHT22;42920;45.306;20.448;2023-05-23T04:07:34;435.20;2355.20
57030;DHT22;42920;45.306;20.448;2023-05-23T04:10:01;435.30;2355.20
57030;DHT22;42920;45.306;20.448;2023-05-23T04:12:27;435.40;2355.20
57030;DHT22;42920;45.306;20.448;2023-05-23T04:14:55;435.40;2355.20
57030;DHT22;42920;45.306;20.448;2023-05-23T04:17:22;435.40;2355.20
57030;DHT22;42920;45.306;20.448;2023-05-23T04:19:49;435.50;2355.20
57030;DHT22;42920;45.306;20.448;2023-05-23T04:22:15;435.60;2355.20
57030;DHT22;42920;45.306;20.448;2023-05-23T04:24:41;435.80;2355.20
57030;DHT22;42920;45.306;20.448;2023-05-23T04:27:07;435.50;2355.20
57030;DHT22;42920;45.306;20.448;2023-05-23T04:29:33;435.50;2355.20
57030;DHT22;42920;45.306;20.448;2023-05-23T04:32:01;435.60;2355.20
57030;DHT22;42920;45.306;20.448;2023-05-23T04:34:27;435.60;2355.20
57030;DHT22;42920;45.306;20.448;2023-05-23T04:36:53;435.60;2355.20
57030;DHT22;42920;45.306;20.448;2023-05-23T04:39:19;435.60;2355.20
57030;DHT22;42920;45.306;20.448;2023-05-23T04:41:45;435.70;2355.20
57030;DHT22;42920;45.306;20.448;2023-05-23T04:44:11;435.80;2355.20
57030;DHT22;42920;45.306;20.448;2023-05-23T04:46:39;435.80;2355.20
57030;DHT22;42920;45.306;20.448;2023-05-23T04:49:09;435.80;2355.20
57030;DHT22;42920;45.306;20.448;2023-05-23T04:51:35;435.80;2355.20
57030;DHT22;42920;45.306;20.448;2023-05-23T04:54:01;436.00;2355.20
57030;DHT22;42920;45.306;20.448;2023-05-23T04:56:27;436.00;2355.20
57030;DHT22;42920;45.306;20.448;2023-05-23T04:58:53;436.10;2355.20
57030;DHT22;42920;45.306;20.448;2023-05-23T05:01:19;436.10;2355.20
57030;DHT22;42920;45.306;20.448;2023-05-23T05:03:45;460.80;2380.80
57030;DHT22;42920;45.306;20.448;2023-05-23T05:06:12;460.80;2380.80
57030;DHT22;42920;45.306;20.448;2023-05-23T05:08:38;460.90;2380.80
57030;DHT22;42920;45.306;20.448;2023-05-23T05:11:05;460.90;2380.80
57030;DHT22;42920;45.306;20.448;2023-05-23T05:35:33;486.40;2380.80
57030;DHT22;42920;45.306;20.448;2023-05-23T05:37:59;486.40;2380.80
57030;DHT22;42920;45.306;20.448;2023-05-23T05:40:25;486.40;2380.80
57030;DHT22;42920;45.306;20.448;2023-05-23T05:42:51;486.40;2380.80
57030;DHT22;42920;45.306;20.448;2023-05-23T05:45:17;486.40;2380.80
57030;DHT22;42920;45.306;20.448;2023-05-23T05:47:44;486.60;2380.80
57030;DHT22;42920;45.306;20.448;2023-05-23T05:50:10;486.60;2380.80
57030;DHT22;42920;45.306;20.448;2023-05-23T05:52:36;486.80;2380.80
57030;DHT22;42920;45.306;20.448;2023-05-23T05:55:08;486.80;2380.80
57030;DHT22;42920;45.306;20.448;2023-05-23T05:57:40;486.90;2380.80
57030;DHT22;42920;45.306;20.448;2023-05-23T06:00:08;487.00;2380.80
57030;DHT22;42920;45.306;20.448;2023-05-23T06:02:42;487.00;2380.80
57030;DHT22;42920;45.306;20.448;2023-05-23T06:05:11;487.00;2380.80
57030;DHT22;42920;45.306;20.448;2023-05-23T06:07:38;487.10;2380.80
57030;DHT22;42920;45.306;20.448;2023-05-23T06:10:04;487.30;2380.80
57030;DHT22;42920;45.306;20.448;2023-05-23T06:12:30;487.30;2380.80
57030;DHT22;42920;45.306;20.448;2023-05-23T06:14:56;512.00;2380.80
57030;DHT22;42920;45.306;20.448;2023-05-23T06:17:21;512.00;2380.80
57030;DHT22;42920;45.306;20.448;2023-05-23T06:19:47;512.00;2380.80
57030;DHT22;42920;45.306;20.448;2023-05-23T06:22:13;512.10;2380.80
57030;DHT22;42920;45.306;20.448;2023-05-23T06:24:38;512.10;2380.80
57030;DHT22;42920;45.306;20.448;2023-05-23T06:27:04;512.30;2380.80
57030;DHT22;42920;45.306;20.448;2023-05-23T06:29:30;512.50;2380.80
57030;DHT22;42920;45.306;20.448;2023-05-23T06:34:22;512.90;2380.80
57030;DHT22;42920;45.306;20.448;2023-05-23T06:36:48;537.60;2406.40
57030;DHT22;42920;45.306;20.448;2023-05-23T06:48:58;537.90;2406.40
57030;DHT22;42920;45.306;20.448;2023-05-23T06:51:24;537.80;2406.40
57030;DHT22;42920;45.306;20.448;2023-05-23T06:53:50;537.90;2406.40
57030;DHT22;42920;45.306;20.448;2023-05-23T06:56:15;537.90;2406.40
57030;DHT22;42920;45.306;20.448;2023-05-23T06:58:41;538.00;2406.40
57030;DHT22;42920;45.306;20.448;2023-05-23T07:01:07;538.10;2406.40
57030;DHT22;42920;45.306;20.448;2023-05-23T07:03:32;538.30;2406.40
57030;DHT22;42920;45.306;20.448;2023-05-23T07:05:58;538.40;2406.40
57030;DHT22;42920;45.306;20.448;2023-05-23T07:08:24;538.50;2406.40
57030;DHT22;42920;45.306;20.448;2023-05-23T07:10:50;538.50;2406.40
57030;DHT22;42920;45.306;20.448;2023-05-23T07:13:15;563.30;2432.00
57030;DHT22;42920;45.306;20.448;2023-05-23T07:15:41;563.30;2432.00
57030;DHT22;42920;45.306;20.448;2023-05-23T07:18:07;563.40;2432.00
57030;DHT22;42920;45.306;20.448;2023-05-23T07:20:33;563.40;2432.00
57030;DHT22;42920;45.306;20.448;2023-05-23T07:22:59;563.40;2432.00
57030;DHT22;42920;45.306;20.448;2023-05-23T07:25:25;563.40;2432.00
57030;DHT22;42920;45.306;20.448;2023-05-23T07:27:51;563.30;2432.00
57030;DHT22;42920;45.306;20.448;2023-05-23T07:30:19;563.50;2432.00
57030;DHT22;42920;45.306;20.448;2023-05-23T07:32:46;563.60;2432.00
57030;DHT22;42920;45.306;20.448;2023-05-23T07:35:13;563.60;2432.00
57030;DHT22;42920;45.306;20.448;2023-05-23T07:37:38;563.60;2432.00
57030;DHT22;42920;45.306;20.448;2023-05-23T07:40:05;563.70;2432.00
57030;DHT22;42920;45.306;20.448;2023-05-23T07:42:30;563.80;2432.00
57030;DHT22;42920;45.306;20.448;2023-05-23T07:44:56;563.80;2432.00
57030;DHT22;42920;45.306;20.448;2023-05-23T07:47:22;563.80;2432.00
57030;DHT22;42920;45.306;20.448;2023-05-23T07:49:49;563.90;2432.00
57030;DHT22;42920;45.306;20.448;2023-05-23T07:52:16;564.00;2432.00
57030;DHT22;42920;45.306;20.448;2023-05-23T07:54:42;564.10;2432.00
57030;DHT22;42920;45.306;20.448;2023-05-23T07:57:08;564.10;2432.00
57030;DHT22;42920;45.306;20.448;2023-05-23T07:59:35;588.80;2432.00
57030;DHT22;42920;45.306;20.448;2023-05-23T08:02:01;588.80;2432.00
57030;DHT22;42920;45.306;20.448;2023-05-23T08:04:27;588.80;2432.00
57030;DHT22;42920;45.306;20.448;2023-05-23T08:06:53;588.90;2432.00
57030;DHT22;42920;45.306;20.448;2023-05-23T08:09:20;589.00;2432.00
57030;DHT22;42920;45.306;20.448;2023-05-23T08:11:46;589.10;2432.00
57030;DHT22;42920;45.306;20.448;2023-05-23T08:14:11;589.00;2432.00
57030;DHT22;42920;45.306;20.448;2023-05-23T08:16:37;589.10;2432.00
57030;DHT22;42920;45.306;20.448;2023-05-23T08:19:03;589.10;2432.00
57030;DHT22;42920;45.306;20.448;2023-05-23T08:21:29;589.10;2432.00
57030;DHT22;42920;45.306;20.448;2023-05-23T08:23:54;589.20;2432.00
57030;DHT22;42920;45.306;20.448;2023-05-23T08:26:20;589.20;2432.00
57030;DHT22;42920;45.306;20.448;2023-05-23T08:28:47;589.30;2432.00
57030;DHT22;42920;45.306;20.448;2023-05-23T08:31:13;589.40;2432.00
57030;DHT22;42920;45.306;20.448;2023-05-23T08:33:38;589.40;2432.00
57030;DHT22;42920;45.306;20.448;2023-05-23T08:36:04;589.40;2432.00
57030;DHT22;42920;45.306;20.448;2023-05-23T08:38:30;589.40;2432.00
57030;DHT22;42920;45.306;20.448;2023-05-23T08:40:59;589.50;2432.00
57030;DHT22;42920;45.306;20.448;2023-05-23T08:43:25;589.50;2432.00
57030;DHT22;42920;45.306;20.448;2023-05-23T08:45:51;589.50;2432.00
57030;DHT22;42920;45.306;20.448;2023-05-23T08:48:19;589.60;2432.00
57030;DHT22;42920;45.306;20.448;2023-05-23T08:50:46;589.70;2432.00
57030;DHT22;42920;45.306;20.448;2023-05-23T08:53:15;589.60;2432.00
57030;DHT22;42920;45.306;20.448;2023-05-23T08:55:49;589.70;2432.00
57030;DHT22;42920;45.306;20.448;2023-05-23T08:58:17;614.40;2432.00
57030;DHT22;42920;45.306;20.448;2023-05-23T09:00:46;614.40;2432.00
57030;DHT22;42920;45.306;20.448;2023-05-23T09:03:12;614.50;2432.00
57030;DHT22;42920;45.306;20.448;2023-05-23T09:05:39;614.50;2432.00
57030;DHT22;42920;45.306;20.448;2023-05-23T09:08:04;614.70;2432.00
57030;DHT22;42920;45.306;20.448;2023-05-23T09:10:30;614.80;2432.00
57030;DHT22;42920;45.306;20.448;2023-05-23T09:12:56;614.80;2432.00
57030;DHT22;42920;45.306;20.448;2023-05-23T09:15:23;614.90;2432.00
57030;DHT22;42920;45.306;20.448;2023-05-23T09:17:49;614.90;2432.00
57030;DHT22;42920;45.306;20.448;2023-05-23T09:20:17;614.90;2432.00
57030;DHT22;42920;45.306;20.448;2023-05-23T09:22:47;615.10;2432.00
57030;DHT22;42920;45.306;20.448;2023-05-23T09:25:13;615.20;2432.00
57030;DHT22;42920;45.306;20.448;2023-05-23T09:27:39;615.10;2406.40
57030;DHT22;42920;45.306;20.448;2023-05-23T09:30:09;615.30;2432.00
57030;DHT22;42920;45.306;20.448;2023-05-23T09:32:35;640.20;2329.60
57030;DHT22;42920;45.306;20.448;2023-05-23T09:35:05;640.10;2252.80
57030;DHT22;42920;45.306;20.448;2023-05-23T09:37:36;640.20;2124.80
57030;DHT22;42920;45.306;20.448;2023-05-23T09:40:07;640.60;2227.20
57030;DHT22;42920;45.306;20.448;2023-05-23T09:45:11;640.90;2022.40
57030;DHT22;42920;45.306;20.448;2023-05-23T09:50:04;665.70;2022.40
57030;DHT22;42920;45.306;20.448;2023-05-23T09:52:36;665.70;1945.60
57030;DHT22;42920;45.306;20.448;2023-05-23T09:55:06;665.90;1843.20
57030;DHT22;42920;45.306;20.448;2023-05-23T09:57:34;666.00;2022.40
57030;DHT22;42920;45.306;20.448;2023-05-23T10:00:03;666.10;1766.40
57030;DHT22;42920;45.306;20.448;2023-05-23T10:02:57;666.20;1868.80
57030;DHT22;42920;45.306;20.448;2023-05-23T10:05:33;666.30;1689.60
57030;DHT22;42920;45.306;20.448;2023-05-23T10:08:01;666.50;1689.60
57030;DHT22;42920;45.306;20.448;2023-05-23T10:10:30;691.30;1689.60
57030;DHT22;42920;45.306;20.448;2023-05-23T10:12:59;691.30;1715.20
57030;DHT22;42920;45.306;20.448;2023-05-23T10:15:30;691.60;1766.40
57030;DHT22;42920;45.306;20.448;2023-05-23T10:18:17;691.70;1664.00
57030;DHT22;42920;45.306;20.448;2023-05-23T10:20:48;691.80;1638.40
57030;DHT22;42920;45.306;20.448;2023-05-23T10:23:15;691.80;1638.40
57030;DHT22;42920;45.306;20.448;2023-05-23T10:25:43;691.90;1510.40
57030;DHT22;42920;45.306;20.448;2023-05-23T10:28:09;691.90;1459.20
57030;DHT22;42920;45.306;20.448;2023-05-23T10:30:35;692.00;1484.80
57030;DHT22;42920;45.306;20.448;2023-05-23T10:33:01;692.10;1484.80
57030;DHT22;42920;45.306;20.448;2023-05-23T10:35:46;716.90;1510.40
57030;DHT22;42920;45.306;20.448;2023-05-23T10:45:44;716.80;1536.00
57030;DHT22;42920;45.306;20.448;2023-05-23T10:48:33;717.10;1484.80
57030;DHT22;42920;45.306;20.448;2023-05-23T10:51:07;717.10;1433.60
57030;DHT22;42920;45.306;20.448;2023-05-23T10:53:38;717.20;1433.60
57030;DHT22;42920;45.306;20.448;2023-05-23T10:56:05;717.20;1408.00
57030;DHT22;42920;45.306;20.448;2023-05-23T10:58:35;717.30;1433.60
57030;DHT22;42920;45.306;20.448;2023-05-23T11:01:07;717.50;1382.40
57030;DHT22;42920;45.306;20.448;2023-05-23T11:09:17;742.40;1433.60
57030;DHT22;42920;45.306;20.448;2023-05-23T11:12:06;742.50;1459.20
57030;DHT22;42920;45.306;20.448;2023-05-23T11:17:00;742.50;1459.20
57030;DHT22;42920;45.306;20.448;2023-05-23T11:19:27;742.50;1459.20
57030;DHT22;42920;45.306;20.448;2023-05-23T11:22:02;742.40;1459.20
57030;DHT22;42920;45.306;20.448;2023-05-23T11:24:49;742.40;1433.60
57030;DHT22;42920;45.306;20.448;2023-05-23T11:27:16;742.50;1433.60
57030;DHT22;42920;45.306;20.448;2023-05-23T11:29:58;742.50;1433.60
57030;DHT22;42920;45.306;20.448;2023-05-23T11:32:27;742.40;1433.60
57030;DHT22;42920;45.306;20.448;2023-05-23T11:34:53;742.50;1408.00
57030;DHT22;42920;45.306;20.448;2023-05-23T11:37:19;742.70;1459.20
57030;DHT22;42920;45.306;20.448;2023-05-23T11:39:45;742.90;1433.60
57030;DHT22;42920;45.306;20.448;2023-05-23T11:42:11;742.90;1459.20
57030;DHT22;42920;45.306;20.448;2023-05-23T11:44:37;742.80;1459.20
57030;DHT22;42920;45.306;20.448;2023-05-23T11:47:06;742.90;1459.20
57030;DHT22;42920;45.306;20.448;2023-05-23T11:52:03;743.00;1459.20
57030;DHT22;42920;45.306;20.448;2023-05-23T11:54:29;743.00;1433.60
57030;DHT22;42920;45.306;20.448;2023-05-23T11:56:55;743.10;1433.60
57030;DHT22;42920;45.306;20.448;2023-05-23T11:59:23;743.10;1408.00
57030;DHT22;42920;45.306;20.448;2023-05-23T12:01:50;743.10;1382.40
57030;DHT22;42920;45.306;20.448;2023-05-23T12:04:16;743.00;1408.00
57030;DHT22;42920;45.306;20.448;2023-05-23T12:06:46;743.00;1484.80
57030;DHT22;42920;45.306;20.448;2023-05-23T12:09:13;743.00;1433.60
57030;DHT22;42920;45.306;20.448;2023-05-23T12:11:40;743.00;1408.00
57030;DHT22;42920;45.306;20.448;2023-05-23T12:14:13;743.10;1408.00
57030;DHT22;42920;45.306;20.448;2023-05-23T12:16:43;743.30;1382.40
57030;DHT22;42920;45.306;20.448;2023-05-23T12:19:10;768.00;1382.40
57030;DHT22;42920;45.306;20.448;2023-05-23T12:21:40;768.10;1382.40
57030;DHT22;42920;45.306;20.448;2023-05-23T12:24:18;768.10;1356.80
57030;DHT22;42920;45.306;20.448;2023-05-23T12:26:48;768.40;1433.60
57030;DHT22;42920;45.306;20.448;2023-05-23T12:29:14;768.40;1382.40
57030;DHT22;42920;45.306;20.448;2023-05-23T12:31:41;768.40;1356.80
57030;DHT22;42920;45.306;20.448;2023-05-23T12:34:06;768.40;1331.20
57030;DHT22;42920;45.306;20.448;2023-05-23T12:36:33;768.40;1331.20
57030;DHT22;42920;45.306;20.448;2023-05-23T12:39:03;768.50;1331.20
57030;DHT22;42920;45.306;20.448;2023-05-23T12:41:29;768.60;1331.20
57030;DHT22;42920;45.306;20.448;2023-05-23T12:43:55;768.80;1331.20
57030;DHT22;42920;45.306;20.448;2023-05-23T12:46:25;768.80;1331.20
57030;DHT22;42920;45.306;20.448;2023-05-23T12:48:51;768.90;1305.60
57030;DHT22;42920;45.306;20.448;2023-05-23T12:51:18;768.90;1280.00
57030;DHT22;42920;45.306;20.448;2023-05-23T12:53:44;768.90;1305.60
57030;DHT22;42920;45.306;20.448;2023-05-23T12:56:09;768.70;1254.40
57030;DHT22;42920;45.306;20.448;2023-05-23T12:58:35;768.60;1280.00
57030;DHT22;42920;45.306;20.448;2023-05-23T13:01:01;768.80;1280.00
57030;DHT22;42920;45.306;20.448;2023-05-23T13:03:28;793.60;1280.00
57030;DHT22;42920;45.306;20.448;2023-05-23T13:05:57;793.60;1254.40
57030;DHT22;42920;45.306;20.448;2023-05-23T13:08:23;793.60;1254.40
57030;DHT22;42920;45.306;20.448;2023-05-23T13:10:50;768.90;1228.80
57030;DHT22;42920;45.306;20.448;2023-05-23T13:13:16;793.70;1280.00
57030;DHT22;42920;45.306;20.448;2023-05-23T13:15:41;793.70;1254.40
57030;DHT22;42920;45.306;20.448;2023-05-23T13:18:07;793.60;1254.40
57030;DHT22;42920;45.306;20.448;2023-05-23T13:20:33;768.60;1305.60
57030;DHT22;42920;45.306;20.448;2023-05-23T13:22:59;768.80;1280.00
57030;DHT22;42920;45.306;20.448;2023-05-23T13:25:28;768.80;1254.40
57030;DHT22;42920;45.306;20.448;2023-05-23T13:27:53;768.60;1280.00
57030;DHT22;42920;45.306;20.448;2023-05-23T13:30:19;768.80;1254.40
57030;DHT22;42920;45.306;20.448;2023-05-23T13:32:45;768.90;1254.40
57030;DHT22;42920;45.306;20.448;2023-05-23T13:35:11;768.80;1254.40
57030;DHT22;42920;45.306;20.448;2023-05-23T13:37:37;768.70;1254.40
57030;DHT22;42920;45.306;20.448;2023-05-23T13:40:03;768.80;1280.00
57030;DHT22;42920;45.306;20.448;2023-05-23T13:42:29;768.60;1280.00
57030;DHT22;42920;45.306;20.448;2023-05-23T13:44:55;768.60;1280.00
57030;DHT22;42920;45.306;20.448;2023-05-23T13:47:21;768.60;1280.00
57030;DHT22;42920;45.306;20.448;2023-05-23T13:49:46;768.60;1280.00
57030;DHT22;42920;45.306;20.448;2023-05-23T13:52:12;768.70;1203.20
57030;DHT22;42920;45.306;20.448;2023-05-23T13:54:38;768.80;1203.20
57030;DHT22;42920;45.306;20.448;2023-05-23T13:57:04;768.90;1254.40
57030;DHT22;42920;45.306;20.448;2023-05-23T13:59:31;793.60;1280.00
57030;DHT22;42920;45.306;20.448;2023-05-23T14:01:56;793.60;1280.00
57030;DHT22;42920;45.306;20.448;2023-05-23T14:04:22;768.90;1254.40
57030;DHT22;42920;45.306;20.448;2023-05-23T14:06:48;768.90;1228.80
57030;DHT22;42920;45.306;20.448;2023-05-23T14:09:15;768.80;1254.40
57030;DHT22;42920;45.306;20.448;2023-05-23T14:11:41;768.80;1254.40
57030;DHT22;42920;45.306;20.448;2023-05-23T14:14:06;768.70;1254.40
57030;DHT22;42920;45.306;20.448;2023-05-23T14:16:32;768.50;1254.40
57030;DHT22;42920;45.306;20.448;2023-05-23T14:18:58;768.50;1280.00
57030;DHT22;42920;45.306;20.448;2023-05-23T14:21:23;768.50;1280.00
57030;DHT22;42920;45.306;20.448;2023-05-23T14:23:49;768.60;1254.40
57030;DHT22;42920;45.306;20.448;2023-05-23T14:26:15;768.50;1203.20
57030;DHT22;42920;45.306;20.448;2023-05-23T14:28:41;768.60;1177.60
57030;DHT22;42920;45.306;20.448;2023-05-23T14:31:06;768.70;1203.20
57030;DHT22;42920;45.306;20.448;2023-05-23T14:33:32;768.60;1177.60
57030;DHT22;42920;45.306;20.448;2023-05-23T14:35:59;768.60;1177.60
57030;DHT22;42920;45.306;20.448;2023-05-23T14:38:25;768.60;1228.80
57030;DHT22;42920;45.306;20.448;2023-05-23T14:40:51;768.60;1228.80
57030;DHT22;42920;45.306;20.448;2023-05-23T14:43:18;768.60;1228.80
57030;DHT22;42920;45.306;20.448;2023-05-23T14:45:44;768.60;1203.20
57030;DHT22;42920;45.306;20.448;2023-05-23T14:48:09;768.50;1228.80
57030;DHT22;42920;45.306;20.448;2023-05-23T14:50:35;768.50;1228.80
57030;DHT22;42920;45.306;20.448;2023-05-23T14:53:01;768.40;1177.60
57030;DHT22;42920;45.306;20.448;2023-05-23T14:55:27;768.30;1228.80
57030;DHT22;42920;45.306;20.448;2023-05-23T14:57:53;768.20;1254.40
57030;DHT22;42920;45.306;20.448;2023-05-23T15:00:19;768.10;1254.40
57030;DHT22;42920;45.306;20.448;2023-05-23T15:02:44;768.20;1254.40
57030;DHT22;42920;45.306;20.448;2023-05-23T15:05:11;768.10;1203.20
57030;DHT22;42920;45.306;20.448;2023-05-23T15:07:37;768.10;1203.20
57030;DHT22;42920;45.306;20.448;2023-05-23T15:10:06;768.10;1228.80
57030;DHT22;42920;45.306;20.448;2023-05-23T15:12:32;768.10;1254.40
57030;DHT22;42920;45.306;20.448;2023-05-23T15:14:58;768.20;1228.80
57030;DHT22;42920;45.306;20.448;2023-05-23T15:17:34;768.10;1254.40
57030;DHT22;42920;45.306;20.448;2023-05-23T15:20:00;768.00;1254.40
57030;DHT22;42920;45.306;20.448;2023-05-23T15:22:26;743.30;1254.40
57030;DHT22;42920;45.306;20.448;2023-05-23T15:24:51;743.20;1228.80
57030;DHT22;42920;45.306;20.448;2023-05-23T15:27:17;743.20;1228.80
57030;DHT22;42920;45.306;20.448;2023-05-23T15:29:46;743.10;1254.40
57030;DHT22;42920;45.306;20.448;2023-05-23T15:32:12;742.80;1254.40
57030;DHT22;42920;45.306;20.448;2023-05-23T15:34:38;742.60;1280.00
57030;DHT22;42920;45.306;20.448;2023-05-23T15:37:03;742.70;1331.20
57030;DHT22;42920;45.306;20.448;2023-05-23T15:39:29;742.80;1254.40